Terminal Aerodrome Forecast
Issued by NWS Jackson, KY

Home | Current Version | Previous Version | Text Only | Print | Product List | Glossary On
Versions: 1 2 3 4 5 6 7 8 9 10 11 12 13 14 15 16 17
000
FTUS43 KJKL 232100 AAA
TAFLOZ
TAF AMD
KLOZ 232147Z 2322/2418 03005KT 5SM -RA BR OVC005
     FM240400 36005KT 5SM -RASN BR OVC008
     FM240600 34005KT 3SM -SN BR OVC008
     FM240800 33006KT 2SM -SN BR OVC003
     FM241100 31007KT P6SM BKN015
     FM241400 29007KT P6SM SCT025=

USA.gov is the U.S. government's official web portal to all federal, state and local government web resources and services.